Time;durP1;ratioP1;P1;durP2;ratioP2;P2;SDS_P1;SDS_P2;PMS_P1;PMS_P2;Temp;Humidity;BMP_temperature;BMP_pressure;BME280_temperature;BME280_humidity;BME280_pressure;Samples;Min_cycle;Max_cycle;Signal;HPM_P1;HPM_P2
2023/02/19 00:07:53;;;;;;;8.20;4.40;;;;;;;6.55;81.72;100067.46;125683;1303;639038;-68
2023/02/19 00:11:54;;;;;;;9.20;5.60;;;;;;;6.53;81.65;100063.82;128099;1301;127876;-66
2023/02/19 00:15:55;;;;;;;11.30;6.20;;;;;;;6.52;81.67;100059.05;126823;1290;115438;-68
2023/02/19 00:23:58;;;;;;;8.70;6.20;;;;;;;6.52;81.63;100061.53;125064;1308;114900;-67
2023/02/19 00:32:18;;;;;;;;;;;;;;;;;;;;;
2023/02/19 00:40:25;;;;;;;14.00;8.80;;;;;;;6.52;81.89;100047.52;128022;1294;115347;-68
2023/02/19 00:44:30;;;;;;;12.10;7.60;;;;;;;6.49;82.00;100047.63;124194;1282;5492152;-69
2023/02/19 00:52:35;;;;;;;10.00;7.20;;;;;;;6.48;81.97;100039.34;126642;1295;114878;-69
2023/02/19 00:56:30;;;;;;;7.70;5.60;;;;;;;6.48;82.06;100032.59;125489;1321;114800;-67
2023/02/19 01:00:32;;;;;;;7.40;5.30;;;;;;;6.47;81.98;100026.59;125465;1304;129772;-69
2023/02/19 01:04:32;;;;;;;9.00;5.60;;;;;;;6.45;82.20;100025.23;124148;1314;114876;-69
2023/02/19 01:13:07;;;;;;;7.90;5.70;;;;;;;6.45;82.34;100010.88;125832;1299;639416;-69
2023/02/19 01:17:13;;;;;;;6.80;5.40;;;;;;;6.43;82.29;100010.77;127163;1288;127876;-68
2023/02/19 01:20:57;;;;;;;;;;;;;;;6.39;82.35;100002.91;126874;1301;114935;-69
2023/02/19 01:25:00;;;;;;;7.80;5.90;;;;;;;6.36;82.49;99998.80;122891;1287;5440726;-67
2023/02/19 01:28:57;;;;;;;7.80;5.70;;;;;;;6.34;82.69;99994.98;125183;1326;115340;-66
2023/02/19 01:32:51;;;;;;;;;;;;;;;;;;;;;
2023/02/19 01:41:25;;;;;;;6.80;5.10;;;;;;;6.34;82.86;99987.49;125781;1301;637302;-65
2023/02/19 01:45:28;;;;;;;6.10;4.20;;;;;;;6.32;82.64;99983.85;127917;1282;130125;-68
2023/02/19 01:49:32;;;;;;;;;;;;;;;;;;;;;
2023/02/19 01:53:35;;;;;;;7.00;4.30;;;;;;;6.29;82.83;99983.45;123797;1303;5537326;-67
2023/02/19 01:57:35;;;;;;;;;;;;;;;;;;;;;
2023/02/19 02:01:36;;;;;;;6.20;3.80;;;;;;;6.27;82.83;99971.11;125396;1307;114952;-67
2023/02/19 02:18:32;;;;;;;4.70;3.20;;;;;;;6.29;83.07;99937.89;125620;1305;639088;-66
2023/02/19 02:22:40;;;;;;;4.60;3.10;;;;;;;6.27;83.14;99937.95;128013;1283;129150;-67
2023/02/19 02:27:13;;;;;;;3.80;3.00;;;;;;;6.27;83.16;99940.06;127993;1285;114941;-69
2023/02/19 02:31:22;;;;;;;4.90;3.00;;;;;;;6.27;83.18;99929.96;123868;1284;5438397;-67
2023/02/19 02:35:36;;;;;;;6.10;3.80;;;;;;;6.27;83.21;99918.95;127450;1287;115232;-67
2023/02/19 02:39:32;;;;;;;5.60;4.40;;;;;;;6.29;83.29;99910.19;126031;1303;115113;-69
2023/02/19 02:43:33;;;;;;;6.30;4.10;;;;;;;6.30;83.19;99909.96;125457;1307;114875;-69
2023/02/19 02:55:01;;;;;;;;;;;;;;;;;;;;;
2023/02/19 02:56:12;;;;;;;7.40;4.90;;;;;;;6.33;83.44;99905.06;128726;1279;129869;-69
2023/02/19 03:00:14;;;;;;;6.50;4.50;;;;;;;6.34;83.55;99903.80;128489;1297;115267;-69
2023/02/19 03:04:18;;;;;;;6.80;5.00;;;;;;;6.34;83.52;99897.58;123582;1306;5442932;-69
2023/02/19 03:08:22;;;;;;;6.10;4.80;;;;;;;6.35;83.42;99895.79;125693;1304;115017;-68
2023/02/19 03:32:48;;;;;;;5.70;4.50;;;;;;;6.40;83.66;99887.95;127025;1290;115217;-68
2023/02/19 03:37:02;;;;;;;5.40;3.60;;;;;;;6.39;83.77;99883.55;122627;1293;5433828;-68
2023/02/19 03:41:03;;;;;;;9.50;4.10;;;;;;;6.37;83.80;99868.72;126230;1298;114910;-69
2023/02/19 03:45:06;;;;;;;6.60;4.10;;;;;;;6.37;83.77;99862.70;125825;1305;114880;-67
2023/02/19 03:49:15;;;;;;;4.50;3.60;;;;;;;6.37;83.86;99849.05;125720;1299;116632;-68
2023/02/19 03:53:17;;;;;;;;;;;;;;;;;;;;;
2023/02/19 03:57:26;;;;;;;;;;;;;;;;;;;;;
2023/02/19 04:01:31;;;;;;;4.60;3.90;;;;;;;6.34;84.08;99859.98;125142;1301;114979;-69
2023/02/19 04:05:27;;;;;;;;;;;;;;;;;;;;;
2023/02/19 04:13:33;;;;;;;7.40;4.20;;;;;;;6.34;84.17;99861.23;126321;1290;129613;-68
2023/02/19 04:17:35;;;;;;;6.20;5.00;;;;;;;6.36;84.30;99861.67;125681;1299;115445;-71
2023/02/19 04:21:38;;;;;;;;;;;;;;;;;;;;;
2023/02/19 04:30:05;;;;;;;;;;;;;;;;;;;;;
2023/02/19 04:33:59;;;;;;;8.70;7.50;;;;;;;6.44;84.42;99854.83;127925;1285;128589;-70
2023/02/19 04:38:02;;;;;;;10.10;8.50;;;;;;;6.45;84.41;99850.17;127124;1292;115217;-70
2023/02/19 04:41:43;;;;;;;10.10;8.50;;;;;;;6.45;84.36;99849.64;121879;1314;5462359;-70
2023/02/19 04:45:43;;;;;;;11.80;9.20;;;;;;;6.48;84.27;99848.08;125326;1307;114794;-69
2023/02/19 04:49:45;;;;;;;12.70;8.50;;;;;;;6.49;84.08;99851.39;124941;1330;114936;-69
2023/02/19 04:58:05;;;;;;;;;;;;;;;;;;;;;
2023/02/19 05:06:06;;;;;;;9.60;7.20;;;;;;;6.45;84.43;99826.05;127798;1283;115504;-70
2023/02/19 05:10:05;;;;;;;;;;;;;;;;;;;;;
2023/02/19 05:14:02;;;;;;;8.30;6.10;;;;;;;6.39;84.53;99825.20;126252;1301;115079;-70
2023/02/19 05:18:03;;;;;;;8.80;5.90;;;;;;;6.37;84.40;99824.21;126007;1299;114954;-68
2023/02/19 05:22:03;;;;;;;6.40;5.00;;;;;;;6.36;84.38;99825.69;125619;1299;114866;-69
2023/02/19 05:30:36;;;;;;;;;;;;;;;;;;;;;
2023/02/19 05:34:36;;;;;;;11.40;5.70;;;;;;;6.34;84.44;99821.67;126681;1286;127902;-69
2023/02/19 05:38:38;;;;;;;8.60;5.50;;;;;;;6.35;84.43;99820.39;126505;1290;115310;-69
2023/02/19 05:42:39;;;;;;;5.70;5.10;;;;;;;6.34;84.40;99818.84;122197;1299;5517035;-68
2023/02/19 05:46:40;;;;;;;5.00;4.50;;;;;;;6.32;84.50;99814.30;125594;1313;114987;-69
2023/02/19 05:50:38;;;;;;;;;;;;;;;;;;;;;
2023/02/19 05:59:07;;;;;;;8.00;5.90;;;;;;;6.34;84.52;99818.66;125926;1300;637893;-67
2023/02/19 06:03:03;;;;;;;7.60;5.70;;;;;;;6.33;84.60;99819.77;127349;1285;127938;-67
2023/02/19 06:07:06;;;;;;;7.10;5.80;;;;;;;6.34;84.67;99821.13;126965;1300;114974;-66
2023/02/19 06:11:06;;;;;;;7.30;6.10;;;;;;;6.35;84.72;99823.23;121799;1318;5431768;-66
2023/02/19 06:23:30;;;;;;;;;;;;;;;;;;;;;
2023/02/19 06:27:32;;;;;;;9.10;6.90;;;;;;;6.40;84.72;99840.05;127772;1285;128320;-67
2023/02/19 06:31:35;;;;;;;10.60;7.40;;;;;;;6.39;84.60;99853.95;127571;1286;115344;-68
2023/02/19 06:35:38;;;;;;;5.30;4.80;;;;;;;6.32;84.46;99849.23;122373;1299;5433193;-66
2023/02/19 06:39:33;;;;;;;4.80;4.30;;;;;;;6.22;84.21;99853.16;124328;1317;114996;-67
2023/02/19 06:43:32;;;;;;;;;;;;;;;;;;;;;
2023/02/19 06:48:02;;;;;;;5.20;3.90;;;;;;;6.06;83.91;99867.09;126383;1298;639253;-68
2023/02/19 06:52:02;;;;;;;;;;;;;;;;;;;;;
2023/02/19 06:55:59;;;;;;;3.30;2.90;;;;;;;5.71;83.60;99877.22;126093;1298;115406;-66
2023/02/19 06:59:53;;;;;;;5.70;3.20;;;;;;;5.58;83.68;99872.35;121445;1315;5461113;-67
2023/02/19 07:03:52;;;;;;;;;;;;;;;;;;;;;
2023/02/19 07:12:21;;;;;;;;;;;;;;;;;;;;;
2023/02/19 07:16:23;;;;;;;;;;;;;;;;;;;;;
2023/02/19 07:20:27;;;;;;;6.80;4.00;;;;;;;5.20;83.86;99896.86;126636;1304;115223;-67
2023/02/19 07:28:44;;;;;;;;;;;;;;;;;;;;;
2023/02/19 07:32:36;;;;;;;;;;;;;;;;;;;;;
2023/02/19 07:36:39;;;;;;;6.90;3.60;;;;;;;4.95;83.26;99932.57;126926;1293;115119;-66
2023/02/19 07:40:35;;;;;;;;;;;;;;;;;;;;;
2023/02/19 07:48:30;;;;;;;;;;;;;;;;;;;;;
2023/02/19 07:52:23;;;;;;;;;;;;;;;;;;;;;
2023/02/19 08:00:27;;;;;;;;;;;;;;;;;;;;;
2023/02/19 08:04:01;;;;;;;6.80;2.90;;;;;;;4.22;82.44;99997.73;124618;1331;115020;-66
2023/02/19 08:07:39;;;;;;;11.70;3.10;;;;;;;4.10;82.44;100000.85;126433;1295;636016;-66
2023/02/19 08:15:36;;;;;;;;;;;;;;;;;;;;;
2023/02/19 08:19:09;;;;;;;8.20;2.50;;;;;;;3.77;82.84;100007.40;128771;1277;114861;-64
2023/02/19 08:22:44;;;;;;;;;;;;;;;;;;;;;
2023/02/19 08:26:48;;;;;;;7.40;2.80;;;;;;;3.63;82.91;100025.60;127799;1280;114765;-65
2023/02/19 08:30:21;;;;;;;7.70;3.30;;;;;;;3.55;82.99;100030.06;126181;1312;114878;-62
2023/02/19 08:38:20;;;;;;;9.40;3.00;;;;;;;3.56;83.09;100041.85;126007;1298;635801;-64
2023/02/19 08:42:08;;;;;;;7.80;3.00;;;;;;;3.57;83.26;100049.95;128306;1280;128900;-64
2023/02/19 08:45:47;;;;;;;7.30;2.30;;;;;;;3.61;83.37;100054.63;127884;1296;115285;-65
2023/02/19 08:49:51;;;;;;;7.10;3.00;;;;;;;3.66;83.54;100054.86;128051;1280;115835;-62
2023/02/19 08:53:53;;;;;;;6.80;3.00;;;;;;;3.77;83.68;100062.88;123916;1300;115259;-61
2023/02/19 08:57:16;;;;;;;6.30;2.80;;;;;;;3.89;83.84;100064.67;127827;1288;114985;-62
2023/02/19 09:00:57;;;;;;;;;;;;;;;;;;;;;
2023/02/19 09:04:53;;;;;;;6.70;2.70;;;;;;;4.04;83.57;100069.27;127265;1285;128881;-64
2023/02/19 09:08:44;;;;;;;5.70;3.20;;;;;;;4.13;83.87;100076.27;126311;1291;115484;-65
2023/02/19 09:12:19;;;;;;;7.00;2.90;;;;;;;4.19;83.30;100078.40;126673;1307;115006;-63
2023/02/19 09:16:24;;;;;;;3.90;1.70;;;;;;;4.23;83.29;100076.69;126771;1301;114760;-63
2023/02/19 09:20:19;;;;;;;;;;;;;;;;;;;;;
2023/02/19 09:24:07;;;;;;;7.50;4.20;;;;;;;4.65;84.16;100088.80;125819;1298;129733;-61
2023/02/19 09:27:49;;;;;;;9.70;3.80;;;;;;;4.82;83.44;100089.90;125832;1307;116548;-63
2023/02/19 09:31:25;;;;;;;7.40;3.50;;;;;;;4.98;83.51;100096.53;126269;1310;115039;-61
2023/02/19 09:34:45;;;;;;;5.80;2.70;;;;;;;5.13;83.64;100104.22;126464;1304;114864;-63
2023/02/19 09:38:43;;;;;;;8.10;2.70;;;;;;;5.32;83.58;100110.73;126219;1306;115125;-63
2023/02/19 09:42:29;;;;;;;14.80;6.50;;;;;;;5.54;83.52;100110.39;125709;1316;129744;-64
2023/02/19 09:45:49;;;;;;;;;;;;;;;5.71;83.45;100111.98;126049;1312;114939;-63
2023/02/19 09:49:51;;;;;;;;;;;;;;;;;;;;;
2023/02/19 09:53:46;;;;;;;;;;;;;;;;;;;;;
2023/02/19 09:57:51;;;;;;;9.70;4.20;;;;;;;6.18;82.76;100123.04;125767;1309;114867;-63
2023/02/19 10:01:44;;;;;;;10.40;4.90;;;;;;;6.38;82.45;100131.55;125786;1299;130779;-65
2023/02/19 10:05:55;;;;;;;8.70;3.30;;;;;;;6.59;82.66;100133.48;125702;1302;115482;-64
2023/02/19 10:09:51;;;;;;;;;;;;;;;;;;;;;
2023/02/19 10:13:57;;;;;;;12.40;5.10;;;;;;;6.97;82.44;100155.89;124769;1320;116566;-62
2023/02/19 10:17:51;;;;;;;11.90;5.30;;;;;;;7.16;82.09;100162.30;124720;1327;114802;-62
2023/02/19 10:22:17;;;;;;;16.80;6.60;;;;;;;7.28;81.70;100165.91;125802;1298;128910;-68
2023/02/19 10:25:07;;;;;;;6.40;3.30;;;;;;;7.32;80.57;100175.40;125678;1311;116358;-65
2023/02/19 10:28:43;;;;;;;10.00;4.20;;;;;;;7.28;80.08;100185.11;125961;1311;114971;-63
2023/02/19 10:32:46;;;;;;;;;;;;;;;;;;;;;
2023/02/19 10:36:46;;;;;;;5.10;2.10;;;;;;;7.33;79.57;100197.55;126216;1309;114891;-68
2023/02/19 10:40:03;;;;;;;12.90;4.00;;;;;;;7.24;78.53;100204.83;126697;1292;128316;-62
2023/02/19 10:43:32;;;;;;;;;;;;;;;;;;;;;
2023/02/19 10:47:37;;;;;;;;;;;;;;;;;;;;;
2023/02/19 10:51:40;;;;;;;5.80;2.90;;;;;;;7.30;78.73;100213.98;128746;1286;114902;-64
2023/02/19 10:55:46;;;;;;;;;;;;;;;;;;;;;
2023/02/19 10:59:24;;;;;;;10.90;4.20;;;;;;;7.23;77.22;100220.66;127371;1302;129390;-68
2023/02/19 11:03:08;;;;;;;;;;;;;;;;;;;;;
2023/02/19 11:07:09;;;;;;;7.70;2.50;;;;;;;7.20;76.98;100239.95;126165;1311;115022;-67
2023/02/19 11:15:13;;;;;;;6.00;3.30;;;;;;;7.05;76.68;100245.80;124263;1310;114936;-70
2023/02/19 11:19:09;;;;;;;7.90;2.80;;;;;;;7.01;76.70;100250.20;124094;1317;130534;-68
2023/02/19 11:27:42;;;;;;;;;;;;;;;;;;;;;
2023/02/19 11:31:02;;;;;;;8.40;3.50;;;;;;;6.91;75.86;100260.87;129517;1272;128608;-64
2023/02/19 11:34:51;;;;;;;;;;;;;;;;;;;;;
2023/02/19 11:39:01;;;;;;;7.80;1.80;;;;;;;6.75;74.21;100262.67;129072;1270;115042;-65
2023/02/19 11:42:28;;;;;;;8.00;2.30;;;;;;;6.62;74.70;100255.83;122848;1292;114903;-66
2023/02/19 11:46:33;;;;;;;10.30;3.70;;;;;;;6.61;74.87;100258.54;128962;1275;114981;-63
2023/02/19 11:51:04;;;;;;;6.40;3.40;;;;;;;6.52;74.29;100256.52;128907;1281;114942;-65
2023/02/19 11:55:40;;;;;;;;;;;;;;;;;;;;;
2023/02/19 11:59:28;;;;;;;6.60;2.20;;;;;;;6.44;74.15;100260.53;127283;1306;127778;-65
2023/02/19 12:07:56;;;;;;;17.40;7.30;;;;;;;6.84;74.40;100249.74;127384;1288;114951;-65
2023/02/19 12:12:01;;;;;;;6.70;2.70;;;;;;;6.98;74.32;100257.43;127335;1292;114966;-67
2023/02/19 12:16:21;;;;;;;;;;;;;;;;;;;;;
2023/02/19 12:20:09;;;;;;;8.80;3.30;;;;;;;7.26;72.74;100273.30;127698;1296;128287;-65
2023/02/19 12:24:21;;;;;;;8.40;3.20;;;;;;;7.32;72.86;100285.88;128404;1281;115182;-67
2023/02/19 12:28:12;;;;;;;4.00;1.50;;;;;;;7.52;71.34;100287.64;128754;1287;114840;-68
2023/02/19 12:32:19;;;;;;;6.10;2.10;;;;;;;7.60;70.65;100292.14;129136;1275;114798;-64
2023/02/19 12:36:47;;;;;;;5.80;2.10;;;;;;;7.64;70.82;100299.98;129356;1286;114874;-66
2023/02/19 12:40:40;;;;;;;3.80;1.80;;;;;;;7.74;70.66;100310.83;129256;1263;127817;-64
2023/02/19 12:44:26;;;;;;;;;;;;;;;;;;;;;
2023/02/19 12:48:02;;;;;;;5.10;2.20;;;;;;;7.75;69.61;100316.65;129430;1282;114865;-64
2023/02/19 12:51:42;;;;;;;;;;;;;;;7.72;70.03;100320.48;129590;1282;114803;-63
2023/02/19 12:55:31;;;;;;;;;;;;;;;;;;;;;
2023/02/19 12:59:12;;;;;;;8.50;2.30;;;;;;;7.63;69.26;100329.55;129143;1273;128774;-63
2023/02/19 13:03:09;;;;;;;8.60;3.90;;;;;;;7.59;69.00;100342.48;128870;1288;114719;-63
2023/02/19 13:07:08;;;;;;;;;;;;;;;;;;;;;
2023/02/19 13:11:01;;;;;;;7.50;2.90;;;;;;;7.37;68.12;100363.02;128177;1283;114914;-65
2023/02/19 13:14:39;;;;;;;;;;;;;;;;;;;;;
2023/02/19 13:18:32;;;;;;;7.90;2.50;;;;;;;7.17;67.52;100370.98;128421;1294;128963;-67
2023/02/19 13:25:57;;;;;;;5.50;2.60;;;;;;;7.19;68.01;100370.91;128479;1278;114902;-70
2023/02/19 13:30:12;;;;;;;;;;;;;;;;;;;;;
2023/02/19 13:34:00;;;;;;;;;;;;;;;;;;;;;
2023/02/19 13:37:50;;;;;;;9.80;2.60;;;;;;;7.20;67.20;100377.27;129270;1267;129017;-69
2023/02/19 13:41:53;;;;;;;9.00;2.40;;;;;;;7.19;66.09;100376.95;128838;1269;115395;-68
2023/02/19 13:45:47;;;;;;;;;;;;;;;;;;;;;
2023/02/19 13:49:46;;;;;;;5.70;2.20;;;;;;;7.10;65.37;100385.25;128028;1299;114842;-68
2023/02/19 13:53:38;;;;;;;;;;;;;;;;;;;;;
2023/02/19 13:57:16;;;;;;;;;;;;;;;;;;;;;
2023/02/19 14:01:22;;;;;;;;;;;;;;;;;;;;;
2023/02/19 14:05:43;;;;;;;4.80;2.10;;;;;;;6.73;64.58;100392.48;125682;1318;116656;-69
2023/02/19 14:09:49;;;;;;;6.90;2.10;;;;;;;6.59;64.42;100397.88;125406;1322;115024;-69
2023/02/19 14:18:01;;;;;;;;;;;;;;;;;;;;;
2023/02/19 14:22:08;;;;;;;;;;;;;;;;;;;;;
2023/02/19 14:25:59;;;;;;;;;;;;;;;;;;;;;
2023/02/19 14:29:56;;;;;;;7.20;3.80;;;;;;;5.96;64.75;100424.23;126356;1275;5620776;-64
2023/02/19 14:34:06;;;;;;;11.70;3.90;;;;;;;5.90;64.95;100434.13;126838;1291;114947;-63
2023/02/19 14:38:02;;;;;;;;;;;;;;;;;;;;;
2023/02/19 14:42:19;;;;;;;8.80;3.00;;;;;;;5.90;64.76;100448.83;126296;1292;129564;-61
2023/02/19 14:46:03;;;;;;;8.20;2.40;;;;;;;5.90;64.07;100446.71;125209;1307;115339;-60
2023/02/19 14:49:41;;;;;;;5.20;2.00;;;;;;;5.85;64.00;100452.19;125112;1324;115178;-63
2023/02/19 14:53:26;;;;;;;10.60;2.90;;;;;;;5.76;64.11;100463.23;125120;1307;114966;-67
2023/02/19 14:57:11;;;;;;;;;;;;;;;;;;;;;
2023/02/19 15:00:42;;;;;;;6.90;2.80;;;;;;;5.56;63.98;100469.23;125654;1295;638523;-64
2023/02/19 15:04:21;;;;;;;10.10;3.60;;;;;;;5.47;64.29;100480.27;128708;1275;114905;-68
2023/02/19 15:08:10;;;;;;;6.20;2.70;;;;;;;5.40;64.32;100485.06;128741;1269;115429;-67
2023/02/19 15:12:10;;;;;;;5.40;2.20;;;;;;;5.33;64.30;100490.36;128178;1281;114854;-68
2023/02/19 15:16:02;;;;;;;;;;;;;;;;;;;;;
2023/02/19 15:20:18;;;;;;;10.70;3.20;;;;;;;5.20;64.65;100496.34;126153;1296;114922;-69
2023/02/19 15:23:49;;;;;;;9.40;3.20;;;;;;;5.08;64.66;100504.05;125332;1322;114874;-70
2023/02/19 15:27:36;;;;;;;;;;;;;;;;;;;;;
2023/02/19 15:31:31;;;;;;;8.40;3.40;;;;;;;4.86;65.01;100502.27;124591;1306;116528;-70
2023/02/19 15:35:22;;;;;;;9.10;3.60;;;;;;;4.75;65.06;100511.54;124832;1308;114992;-71
2023/02/19 15:39:02;;;;;;;13.10;4.10;;;;;;;4.65;65.15;100521.84;124860;1311;114853;-69
2023/02/19 15:43:04;;;;;;;11.40;3.60;;;;;;;4.60;65.35;100521.95;124165;1315;114952;-67
2023/02/19 15:47:02;;;;;;;10.80;3.70;;;;;;;4.52;65.61;100526.36;124694;1311;130332;-70
2023/02/19 15:50:43;;;;;;;;;;;;;;;;;;;;;
2023/02/19 15:54:22;;;;;;;9.20;4.30;;;;;;;4.43;65.82;100543.70;125727;1308;114950;-68
2023/02/19 15:58:14;;;;;;;;;;;;;;;;;;;;;
2023/02/19 16:01:26;;;;;;;7.20;3.60;;;;;;;4.38;65.90;100556.35;125977;1313;114907;-69
2023/02/19 16:04:56;;;;;;;10.90;4.80;;;;;;;4.36;66.13;100560.83;126170;1296;128830;-68
2023/02/19 16:09:04;;;;;;;;;;;;;;;;;;;;;
2023/02/19 16:13:13;;;;;;;;;;;;;;;;;;;;;
2023/02/19 16:17:04;;;;;;;11.80;4.30;;;;;;;4.20;66.27;100576.33;125495;1322;115345;-69
2023/02/19 16:21:08;;;;;;;6.50;3.30;;;;;;;4.13;66.30;100577.71;125176;1308;115915;-70
2023/02/19 16:24:52;;;;;;;14.80;4.60;;;;;;;4.01;66.51;100581.98;124713;1313;128619;-69
2023/02/19 16:28:52;;;;;;;7.20;3.70;;;;;;;3.90;66.54;100579.33;124938;1313;115625;-71
2023/02/19 16:32:49;;;;;;;12.20;3.20;;;;;;;3.78;66.72;100581.48;124434;1331;114977;-70
2023/02/19 16:36:36;;;;;;;14.70;4.40;;;;;;;3.66;67.01;100593.52;124534;1307;115137;-67
2023/02/19 16:40:09;;;;;;;7.10;3.30;;;;;;;3.60;67.05;100602.45;125256;1315;114877;-67
2023/02/19 16:44:07;;;;;;;11.00;3.80;;;;;;;3.54;67.05;100614.73;124634;1313;128435;-66
2023/02/19 16:48:03;;;;;;;7.50;2.90;;;;;;;3.42;67.19;100617.91;124766;1329;115460;-66
2023/02/19 16:51:41;;;;;;;8.80;3.50;;;;;;;3.29;67.44;100624.99;125270;1306;114909;-69
2023/02/19 16:55:40;;;;;;;;;;;;;;;;;;;;;
2023/02/19 16:59:24;;;;;;;10.10;3.30;;;;;;;3.15;67.87;100636.13;124538;1323;115018;-66
2023/02/19 17:03:07;;;;;;;12.80;3.20;;;;;;;3.08;67.92;100649.62;125417;1301;129787;-67
2023/02/19 17:06:46;;;;;;;5.50;2.50;;;;;;;3.00;67.91;100656.96;125122;1310;114982;-66
2023/02/19 17:10:31;;;;;;;9.70;2.70;;;;;;;2.93;67.95;100661.11;125079;1306;114828;-66
2023/02/19 17:14:13;;;;;;;8.30;3.10;;;;;;;2.84;68.14;100678.85;125092;1310;115084;-66
2023/02/19 17:17:45;;;;;;;;;;;;;;;;;;;;;
2023/02/19 17:21:37;;;;;;;5.90;2.90;;;;;;;2.71;68.46;100688.17;124763;1307;130183;-67
2023/02/19 17:25:30;;;;;;;;;;;;;;;;;;;;;
2023/02/19 17:29:27;;;;;;;13.30;5.80;;;;;;;2.67;68.75;100697.02;124817;1313;114913;-65
2023/02/19 17:33:08;;;;;;;13.30;5.00;;;;;;;2.67;68.85;100701.79;124638;1313;115039;-66
2023/02/19 17:36:39;;;;;;;13.60;5.20;;;;;;;2.66;69.12;100694.75;125011;1324;114913;-67
2023/02/19 17:40:17;;;;;;;10.80;4.00;;;;;;;2.63;68.77;100700.95;125207;1321;129630;-66
2023/02/19 17:43:27;;;;;;;9.30;4.40;;;;;;;2.63;69.09;100707.48;125110;1311;115426;-65
2023/02/19 17:47:19;;;;;;;7.30;4.00;;;;;;;2.63;69.09;100716.48;125154;1322;116309;-66
2023/02/19 17:52:00;;;;;;;9.10;4.30;;;;;;;2.66;69.47;100720.50;125905;1300;638765;-66
2023/02/19 17:55:24;;;;;;;14.20;4.40;;;;;;;2.64;69.65;100719.46;129462;1268;128250;-67
2023/02/19 17:59:12;;;;;;;10.70;3.50;;;;;;;2.64;69.71;100727.40;129563;1268;115186;-66
2023/02/19 18:03:06;;;;;;;13.50;5.30;;;;;;;2.64;69.75;100736.05;129097;1274;114790;-65
2023/02/19 18:06:54;;;;;;;11.20;4.60;;;;;;;2.63;69.69;100743.80;124905;1276;5433683;-65
2023/02/19 18:10:40;;;;;;;10.00;5.00;;;;;;;2.65;69.67;100745.90;128925;1277;114828;-64
2023/02/19 18:14:25;;;;;;;;;;;;;;;2.67;69.95;100749.75;128984;1271;115160;-65
2023/02/19 18:18:23;;;;;;;12.40;5.00;;;;;;;2.71;69.91;100753.42;128436;1280;129135;-66
2023/02/19 18:22:35;;;;;;;11.00;4.30;;;;;;;2.76;70.15;100752.14;127323;1287;115338;-65
2023/02/19 18:26:35;;;;;;;;;;;;;;;;;;;;;
2023/02/19 18:30:35;;;;;;;;;;;;;;;;;;;;;
2023/02/19 18:34:07;;;;;;;;;;;;;;;;;;;;;
2023/02/19 18:37:34;;;;;;;8.90;3.60;;;;;;;2.89;70.05;100777.23;125337;1302;130074;-69
2023/02/19 18:41:23;;;;;;;;;;;;;;;;;;;;;
2023/02/19 18:45:32;;;;;;;11.20;3.70;;;;;;;2.89;69.97;100784.11;125678;1304;114898;-66
2023/02/19 18:49:14;;;;;;;7.40;3.50;;;;;;;2.87;69.91;100784.85;125201;1320;115073;-66
2023/02/19 18:52:50;;;;;;;7.80;1.80;;;;;;;2.82;69.86;100792.83;125063;1320;115376;-65
2023/02/19 18:56:52;;;;;;;7.40;2.90;;;;;;;2.75;69.78;100799.42;124699;1312;130147;-64
2023/02/19 19:00:36;;;;;;;11.20;3.30;;;;;;;2.65;69.78;100804.96;124972;1308;115418;-64
2023/02/19 19:04:20;;;;;;;11.80;3.10;;;;;;;2.54;69.83;100803.83;125164;1315;114929;-66
2023/02/19 19:08:18;;;;;;;11.10;3.40;;;;;;;2.42;69.75;100802.52;125136;1303;114931;-65
2023/02/19 19:12:09;;;;;;;;;;;;;;;;;;;;;
2023/02/19 19:15:56;;;;;;;7.10;2.90;;;;;;;2.17;69.96;100807.64;125627;1304;129795;-65
2023/02/19 19:19:18;;;;;;;11.00;3.40;;;;;;;2.03;70.15;100804.55;124343;1316;115256;-65
2023/02/19 19:23:12;;;;;;;;;;;;;;;;;;;;;
2023/02/19 19:27:03;;;;;;;8.60;3.00;;;;;;;1.84;70.36;100811.72;124646;1306;114911;-66
2023/02/19 19:30:35;;;;;;;11.60;3.40;;;;;;;1.74;70.51;100815.11;124314;1315;114990;-66
2023/02/19 19:34:29;;;;;;;;;;;;;;;;;;;;;
2023/02/19 19:38:43;;;;;;;5.50;2.60;;;;;;;1.58;70.62;100824.70;126201;1305;636081;-65
2023/02/19 19:42:35;;;;;;;7.70;2.10;;;;;;;1.46;70.83;100832.12;128050;1285;128602;-65
2023/02/19 19:46:21;;;;;;;;;;;;;;;;;;;;;
2023/02/19 19:50:21;;;;;;;;;;;;;;;;;;;;;
2023/02/19 19:54:09;;;;;;;9.90;2.80;;;;;;;1.22;70.99;100827.97;123548;1286;115029;-67
2023/02/19 20:02:03;;;;;;;;;;;;;;;;;;;;;
2023/02/19 20:05:50;;;;;;;8.10;3.60;;;;;;;1.07;71.52;100862.14;125721;1301;128149;-66
2023/02/19 20:09:27;;;;;;;9.30;3.10;;;;;;;1.00;71.72;100862.50;125620;1308;115369;-65
2023/02/19 20:17:41;;;;;;;7.80;3.60;;;;;;;0.92;71.99;100867.25;125882;1300;635882;-64
2023/02/19 20:21:18;;;;;;;;;;;;;;;;;;;;;
2023/02/19 20:25:01;;;;;;;12.40;4.40;;;;;;;0.82;72.13;100869.37;128486;1285;115424;-66
2023/02/19 20:28:52;;;;;;;12.30;4.10;;;;;;;0.79;72.28;100874.11;127801;1287;114793;-66
2023/02/19 20:32:05;;;;;;;9.00;3.30;;;;;;;0.74;72.22;100876.91;127899;1284;115232;-68
2023/02/19 20:35:40;;;;;;;11.10;4.00;;;;;;;0.71;72.47;100871.99;127870;1283;114890;-65
2023/02/19 20:39:14;;;;;;;10.10;3.50;;;;;;;0.69;72.50;100871.81;127512;1296;129210;-64
2023/02/19 20:42:59;;;;;;;14.40;5.20;;;;;;;0.67;72.68;100877.79;126576;1295;116675;-69
2023/02/19 20:46:29;;;;;;;13.30;4.20;;;;;;;0.66;72.71;100881.49;126435;1295;114961;-68
2023/02/19 20:49:51;;;;;;;15.10;5.00;;;;;;;0.61;72.68;100882.89;126869;1295;114914;-68
2023/02/19 20:53:18;;;;;;;13.50;4.90;;;;;;;0.61;72.65;100899.41;126614;1298;116329;-68
2023/02/19 20:56:44;;;;;;;9.20;4.50;;;;;;;0.57;72.89;100907.85;126473;1295;128957;-69
2023/02/19 21:00:22;;;;;;;;;;;;;;;;;;;;;
2023/02/19 21:03:45;;;;;;;;;;;;;;;;;;;;;
2023/02/19 21:07:24;;;;;;;;;;;;;;;;;;;;;
2023/02/19 21:11:19;;;;;;;;;;;;;;;;;;;;;
2023/02/19 21:14:59;;;;;;;11.50;5.40;;;;;;;0.40;73.26;100908.88;127284;1288;128005;-68
2023/02/19 21:18:43;;;;;;;13.50;4.60;;;;;;;0.36;73.37;100913.25;127249;1303;115022;-72
2023/02/19 21:22:42;;;;;;;18.40;6.70;;;;;;;0.35;73.67;100915.17;127714;1285;115672;-74
2023/02/19 21:26:34;;;;;;;11.40;4.30;;;;;;;0.34;73.65;100928.52;126871;1294;114937;-71
2023/02/19 21:30:33;;;;;;;14.10;5.70;;;;;;;0.35;73.56;100932.74;126463;1301;114947;-65
2023/02/19 21:34:15;;;;;;;11.40;4.40;;;;;;;0.35;73.91;100939.06;126748;1291;129683;-66
2023/02/19 21:38:01;;;;;;;;;;;;;;;;;;;;;
2023/02/19 21:41:41;;;;;;;;;;;;;;;;;;;;;
2023/02/19 21:45:33;;;;;;;;;;;;;;;;;;;;;
2023/02/19 21:49:41;;;;;;;13.80;5.40;;;;;;;0.34;74.45;100948.73;126331;1311;114912;-62
2023/02/19 21:52:59;;;;;;;21.60;5.30;;;;;;;0.34;74.28;100954.01;126442;1300;128572;-62
2023/02/19 21:56:58;;;;;;;;;;;;;;;;;;;;;
2023/02/19 22:00:37;;;;;;;;;;;;;;;;;;;;;
2023/02/19 22:04:23;;;;;;;15.60;5.60;;;;;;;0.33;74.16;100977.91;126194;1310;114910;-63
2023/02/19 22:07:52;;;;;;;12.00;5.30;;;;;;;0.33;74.30;100977.03;127016;1304;115101;-62
2023/02/19 22:10:57;;;;;;;13.60;6.00;;;;;;;0.33;74.47;100972.98;127069;1304;131117;-61
2023/02/19 22:14:45;;;;;;;;;;;;;;;;;;;;;
2023/02/19 22:17:48;;;;;;;12.60;5.40;;;;;;;0.31;74.08;100977.72;127282;1285;115051;-63
2023/02/19 22:24:56;;;;;;;12.80;5.10;;;;;;;0.28;74.34;100981.74;127038;1304;114788;-61
2023/02/19 22:28:58;;;;;;;;;;;;;;;;;;;;;
2023/02/19 22:32:25;;;;;;;13.60;5.40;;;;;;;0.22;74.41;100985.41;128097;1296;115208;-61
2023/02/19 22:35:51;;;;;;;16.80;5.10;;;;;;;0.19;74.43;100984.52;128371;1286;114928;-61
2023/02/19 22:39:36;;;;;;;17.20;5.10;;;;;;;0.16;74.61;100990.13;128468;1279;114906;-62
2023/02/19 22:42:40;;;;;;;13.50;6.00;;;;;;;0.12;74.67;100989.58;128785;1277;115036;-63
2023/02/19 22:45:46;;;;;;;12.50;5.30;;;;;;;0.08;74.69;100989.74;128686;1281;128670;-62
2023/02/19 22:49:16;;;;;;;11.70;5.30;;;;;;;0.06;74.65;100985.52;128900;1272;115273;-62
2023/02/19 22:53:07;;;;;;;;;;;;;;;;;;;;;
2023/02/19 22:56:51;;;;;;;;;;;;;;;;;;;;;
2023/02/19 23:00:42;;;;;;;;;;;;;;;;;;;;;
2023/02/19 23:08:48;;;;;;;;;;;;;;;;;;;;;
2023/02/19 23:12:45;;;;;;;17.60;7.30;;;;;;;-0.15;75.18;100990.85;128775;1274;115281;-63
2023/02/19 23:16:48;;;;;;;15.00;5.70;;;;;;;-0.19;74.91;100988.38;128239;1278;114998;-62
2023/02/19 23:20:37;;;;;;;23.40;6.50;;;;;;;-0.22;75.05;100986.77;128134;1287;114770;-63
2023/02/19 23:24:41;;;;;;;15.70;6.00;;;;;;;-0.25;74.99;100985.53;127319;1287;129104;-63
2023/02/19 23:28:07;;;;;;;12.70;5.30;;;;;;;-0.30;75.38;100987.96;126745;1294;115476;-62
2023/02/19 23:32:00;;;;;;;16.30;6.60;;;;;;;-0.32;75.12;100990.40;126486;1289;114959;-61
2023/02/19 23:36:17;;;;;;;12.50;6.50;;;;;;;-0.36;75.28;100987.58;126574;1294;114887;-61